createdAt,value
2022-11-11T00:01:24.665Z,3.70
2022-11-11T00:03:56.460Z,3.83
2022-11-11T00:06:23.894Z,3.85
2022-11-11T00:08:51.177Z,3.63
2022-11-11T00:11:18.661Z,3.83
2022-11-11T00:13:45.890Z,4.35
2022-11-11T00:16:13.133Z,4.32
2022-11-11T00:18:59.511Z,3.90
2022-11-11T00:21:45.821Z,4.20
2022-11-11T00:24:48.165Z,4.30
2022-11-11T00:27:16.854Z,3.67
2022-11-11T00:29:46.981Z,4.25
2022-11-11T00:32:23.572Z,4.10
2022-11-11T00:35:10.395Z,4.53
2022-11-11T00:37:37.768Z,4.15
2022-11-11T00:40:05.217Z,4.03
2022-11-11T00:42:32.533Z,4.20
2022-11-11T00:44:59.851Z,4.28
2022-11-11T00:47:46.274Z,4.00
2022-11-11T00:50:33.974Z,3.92
2022-11-11T00:53:01.247Z,4.28
2022-11-11T00:55:28.511Z,4.88
2022-11-11T00:57:55.934Z,3.78
2022-11-11T01:00:23.325Z,3.85
2022-11-11T01:02:50.614Z,3.78
2022-11-11T01:05:18.064Z,4.18
2022-11-11T01:07:45.495Z,4.18
2022-11-11T01:10:13.082Z,3.67
2022-11-11T01:12:40.395Z,3.63
2022-11-11T01:15:07.900Z,3.33
2022-11-11T01:17:35.330Z,3.63
2022-11-11T01:20:02.692Z,3.78
2022-11-11T01:22:30.075Z,3.00
2022-11-11T01:24:57.310Z,3.60
2022-11-11T01:27:24.636Z,3.22
2022-11-11T01:29:52.011Z,3.85
2022-11-11T01:32:19.536Z,4.30
2022-11-11T01:34:46.857Z,3.80
2022-11-11T01:37:14.229Z,3.90
2022-11-11T01:39:41.470Z,4.10
2022-11-11T01:42:11.187Z,5.03
2022-11-11T01:44:43.120Z,5.10
2022-11-11T01:47:10.881Z,4.80
2022-11-11T01:49:38.334Z,4.47
2022-11-11T01:52:11.217Z,5.15
2022-11-11T01:54:47.651Z,4.70
2022-11-11T01:57:41.362Z,4.43
2022-11-11T02:00:11.209Z,4.13
2022-11-11T02:02:41.004Z,3.97
2022-11-11T02:05:29.489Z,3.85
2022-11-11T02:07:58.828Z,3.63
2022-11-11T02:10:27.614Z,3.72
2022-11-11T02:13:13.970Z,3.50
2022-11-11T02:15:41.646Z,3.72
2022-11-11T02:18:09.252Z,3.80
2022-11-11T02:20:45.299Z,3.85
2022-11-11T02:23:12.816Z,3.63
2022-11-11T02:25:41.632Z,3.83
2022-11-11T02:28:09.104Z,3.63
2022-11-11T02:30:36.491Z,3.97
2022-11-11T02:33:03.779Z,4.10
2022-11-11T02:35:31.236Z,4.18
2022-11-11T02:37:58.524Z,5.45
2022-11-11T02:40:33.959Z,3.97
2022-11-11T02:43:01.262Z,4.18
2022-11-11T02:45:28.728Z,4.22
2022-11-11T02:47:56.016Z,4.57
2022-11-11T02:50:23.522Z,5.00
2022-11-11T02:52:51.006Z,4.47
2022-11-11T02:55:18.422Z,5.15
2022-11-11T02:57:45.899Z,4.80
2022-11-11T03:00:13.626Z,4.95
2022-11-11T03:02:41.121Z,5.25
2022-11-11T03:05:08.763Z,5.88
2022-11-11T03:07:36.137Z,6.03
2022-11-11T03:10:03.647Z,5.72
2022-11-11T03:12:31.060Z,5.93
2022-11-11T03:14:58.482Z,5.82
2022-11-11T03:17:41.243Z,5.55
2022-11-11T03:20:31.753Z,5.88
2022-11-11T03:23:15.312Z,5.97
2022-11-11T03:25:43.536Z,6.35
2022-11-11T03:28:15.231Z,5.95
2022-11-11T03:30:43.766Z,6.25
2022-11-11T03:33:11.449Z,5.88
2022-11-11T03:35:39.155Z,6.75
2022-11-11T03:38:16.756Z,5.40
2022-11-11T03:40:44.827Z,5.57
2022-11-11T03:43:13.131Z,5.22
2022-11-11T03:45:40.632Z,5.30
2022-11-11T03:48:08.003Z,5.18
2022-11-11T03:50:35.686Z,5.30
2022-11-11T03:53:03.024Z,4.63
2022-11-11T03:55:30.561Z,4.82
2022-11-11T03:57:57.927Z,5.00
2022-11-11T04:00:26.494Z,4.53
2022-11-11T04:03:20.803Z,5.30
2022-11-11T04:06:06.791Z,4.63
2022-11-11T04:08:52.904Z,4.80
2022-11-11T04:11:30.401Z,4.75
2022-11-11T04:14:18.780Z,5.00
2022-11-11T04:16:46.085Z,5.25
2022-11-11T04:19:31.945Z,5.00
2022-11-11T04:21:59.228Z,4.85
2022-11-11T04:24:45.256Z,4.70
2022-11-11T04:27:13.786Z,5.20
2022-11-11T04:29:41.495Z,4.95
2022-11-11T04:32:28.300Z,4.80
2022-11-11T04:34:56.603Z,5.03
2022-11-11T04:37:24.616Z,5.22
2022-11-11T04:40:10.672Z,5.38
2022-11-11T04:42:39.500Z,5.18
2022-11-11T04:45:26.112Z,5.15
2022-11-11T04:48:03.422Z,5.85
2022-11-11T04:50:34.991Z,7.55
2022-11-11T04:53:02.944Z,7.15
2022-11-11T04:55:48.986Z,6.45
2022-11-11T04:58:16.634Z,6.07
2022-11-11T05:00:44.033Z,5.72
2022-11-11T05:03:24.934Z,6.15
2022-11-11T05:06:11.034Z,5.40
2022-11-11T05:08:57.751Z,5.70
2022-11-11T05:11:32.224Z,6.00
2022-11-11T05:14:25.360Z,5.13
2022-11-11T05:17:13.225Z,6.25
2022-11-11T05:19:59.264Z,6.20
2022-11-11T05:22:37.014Z,5.40
2022-11-11T05:25:25.016Z,6.05
2022-11-11T05:27:55.000Z,7.13
2022-11-11T05:30:22.831Z,5.75
2022-11-11T05:32:50.690Z,5.97
2022-11-11T05:35:18.051Z,6.35
2022-11-11T05:38:05.297Z,6.63
2022-11-11T05:40:32.633Z,7.53
2022-11-11T05:42:59.957Z,7.85
2022-11-11T05:45:27.215Z,7.82
2022-11-11T05:47:54.461Z,8.40
2022-11-11T05:50:21.774Z,10.02
2022-11-11T05:52:50.307Z,9.90
2022-11-11T05:55:17.670Z,9.48
2022-11-11T05:57:45.093Z,8.77
2022-11-11T06:00:12.622Z,8.65
2022-11-11T06:02:40.001Z,8.77
2022-11-11T06:05:08.732Z,8.57
2022-11-11T06:07:39.516Z,9.68
2022-11-11T06:10:26.111Z,9.20
2022-11-11T06:13:02.677Z,8.05
2022-11-11T06:15:29.952Z,8.18
2022-11-11T06:17:57.221Z,8.50
2022-11-11T06:20:24.562Z,8.57
2022-11-11T06:22:58.122Z,8.07
2022-11-11T06:25:45.077Z,9.13
2022-11-11T06:28:12.328Z,8.25
2022-11-11T06:30:55.225Z,8.15
2022-11-11T06:33:23.089Z,9.10
2022-11-11T06:35:50.654Z,7.82
2022-11-11T06:38:18.466Z,8.23
2022-11-11T06:40:46.165Z,8.77
2022-11-11T06:43:13.420Z,8.90
2022-11-11T06:45:40.731Z,8.55
2022-11-11T06:48:08.192Z,9.05
2022-11-11T06:50:35.934Z,8.88
2022-11-11T06:53:07.171Z,9.32
2022-11-11T06:55:34.979Z,8.68
2022-11-11T06:58:09.308Z,8.45
2022-11-11T07:00:37.321Z,8.93
2022-11-11T07:03:04.770Z,9.30
2022-11-11T07:05:32.096Z,9.65
2022-11-11T07:08:03.069Z,8.88
2022-11-11T07:10:30.704Z,11.00
2022-11-11T07:12:58.053Z,10.43
2022-11-11T07:15:25.318Z,10.63
2022-11-11T07:17:52.595Z,11.90
2022-11-11T07:20:20.020Z,10.82
2022-11-11T07:22:47.433Z,9.60
2022-11-11T07:25:14.797Z,10.55
2022-11-11T07:27:42.538Z,9.18
2022-11-11T07:30:11.188Z,10.63
2022-11-11T07:32:38.781Z,11.73
2022-11-11T07:35:06.238Z,8.80
2022-11-11T07:37:33.473Z,10.77
2022-11-11T07:40:00.748Z,10.48
2022-11-11T07:42:31.460Z,8.05
2022-11-11T07:44:59.094Z,9.15
2022-11-11T07:47:26.326Z,10.00
2022-11-11T07:49:53.600Z,9.40
2022-11-11T07:52:23.809Z,10.13
2022-11-11T07:54:51.340Z,10.13
2022-11-11T07:57:18.638Z,10.32
2022-11-11T07:59:45.999Z,11.05
2022-11-11T08:02:13.541Z,10.30
2022-11-11T08:04:40.817Z,8.80
2022-11-11T08:07:08.170Z,9.57
2022-11-11T08:09:35.479Z,8.68
2022-11-11T08:12:22.309Z,9.77
2022-11-11T08:14:49.609Z,10.43
2022-11-11T08:17:16.875Z,10.27
2022-11-11T08:19:44.215Z,9.35
2022-11-11T08:22:11.461Z,9.55
2022-11-11T08:27:26.287Z,11.52
2022-11-11T08:29:53.608Z,9.43
2022-11-11T08:32:20.872Z,9.02
2022-11-11T08:34:48.273Z,9.43
2022-11-11T08:37:15.529Z,8.35
2022-11-11T08:39:43.270Z,8.90
2022-11-11T08:42:10.539Z,7.82
2022-11-11T08:44:37.793Z,9.20
2022-11-11T08:47:05.086Z,7.43
2022-11-11T08:49:34.594Z,8.32
2022-11-11T08:52:03.093Z,7.43
2022-11-11T08:54:30.384Z,8.52
2022-11-11T08:56:58.815Z,8.45
2022-11-11T08:59:26.148Z,8.35
2022-11-11T09:01:53.376Z,8.52
2022-11-11T09:04:43.824Z,7.82
2022-11-11T09:07:08.687Z,8.18
2022-11-11T09:09:36.002Z,8.68
2022-11-11T09:12:03.545Z,9.27
2022-11-11T09:14:30.852Z,8.93
2022-11-11T09:16:58.175Z,10.57
2022-11-11T09:19:25.471Z,9.55
2022-11-11T09:21:55.807Z,10.88
2022-11-11T09:24:23.092Z,10.60
2022-11-11T09:26:50.654Z,11.57
2022-11-11T09:29:18.418Z,10.20
2022-11-11T09:31:46.640Z,11.25
2022-11-11T09:34:14.667Z,11.27
2022-11-11T09:36:42.682Z,11.00
2022-11-11T09:39:10.220Z,10.25
2022-11-11T09:41:37.428Z,10.80
2022-11-11T09:44:04.769Z,10.60
2022-11-11T09:46:55.376Z,10.73
2022-11-11T09:49:22.602Z,9.65
2022-11-11T09:51:55.887Z,10.82
2022-11-11T09:54:35.249Z,11.98
2022-11-11T09:57:04.760Z,10.73
2022-11-11T09:59:38.458Z,11.00
2022-11-11T10:02:10.851Z,11.23
2022-11-11T10:04:46.420Z,11.50
2022-11-11T10:07:17.677Z,11.07
2022-11-11T10:09:47.608Z,11.38
2022-11-11T10:12:18.650Z,11.35
2022-11-11T10:14:47.150Z,11.65
2022-11-11T10:17:14.397Z,11.25
2022-11-11T10:20:03.462Z,11.68
2022-11-11T10:22:37.902Z,11.95
2022-11-11T10:25:05.103Z,10.85
2022-11-11T10:27:33.916Z,12.95
2022-11-11T10:30:02.748Z,12.07
2022-11-11T10:32:33.463Z,11.05
2022-11-11T10:35:06.294Z,13.18
2022-11-11T10:37:40.607Z,12.18
2022-11-11T10:40:26.581Z,11.68
2022-11-11T10:42:53.866Z,11.13
2022-11-11T10:45:21.165Z,9.88
2022-11-11T10:47:54.400Z,10.20
2022-11-11T10:50:27.578Z,10.43
2022-11-11T10:53:01.481Z,11.30
2022-11-11T10:55:39.366Z,9.95
2022-11-11T10:58:16.173Z,10.98
2022-11-11T11:00:44.891Z,9.65
2022-11-11T11:03:12.177Z,10.23
2022-11-11T11:05:43.635Z,9.98
2022-11-11T11:08:13.295Z,9.65
2022-11-11T11:10:43.375Z,9.38
2022-11-11T11:13:16.352Z,11.18
2022-11-11T11:15:50.609Z,10.80
2022-11-11T11:18:19.668Z,11.77
2022-11-11T11:20:56.235Z,10.10
2022-11-11T11:23:37.406Z,11.30
2022-11-11T11:26:05.312Z,9.32
2022-11-11T11:28:34.419Z,10.65
2022-11-11T11:31:08.371Z,11.07
2022-11-11T11:33:50.930Z,12.20
2022-11-11T11:36:18.956Z,12.82
2022-11-11T11:38:47.673Z,12.95
2022-11-11T11:41:14.963Z,12.30
2022-11-11T11:43:45.238Z,11.90
2022-11-11T11:46:28.475Z,10.83
2022-11-11T11:49:03.040Z,12.38
2022-11-11T11:51:30.285Z,12.52
2022-11-11T11:54:09.765Z,12.10
2022-11-11T11:56:37.091Z,11.38
2022-11-11T11:59:14.592Z,12.32
2022-11-11T12:01:41.848Z,13.15
2022-11-11T12:04:29.432Z,12.23
2022-11-11T12:06:56.750Z,11.80
2022-11-11T12:09:36.246Z,11.80
2022-11-11T12:12:29.018Z,12.35
2022-11-11T12:15:08.635Z,13.15
2022-11-11T12:17:54.689Z,12.40
2022-11-11T12:20:26.019Z,12.90
2022-11-11T12:23:02.020Z,10.60
2022-11-11T12:25:32.325Z,12.88
2022-11-11T12:28:18.018Z,12.27
2022-11-11T12:30:56.521Z,11.65
2022-11-11T12:33:26.514Z,12.23
2022-11-11T12:36:20.159Z,11.27
2022-11-11T12:38:54.922Z,11.93
2022-11-11T12:41:28.297Z,13.27
2022-11-11T12:43:58.399Z,11.90
2022-11-11T12:47:04.094Z,12.80
2022-11-11T12:49:35.183Z,13.00
2022-11-11T12:52:17.352Z,13.07
2022-11-11T12:54:50.486Z,12.85
2022-11-11T12:57:24.158Z,12.45
2022-11-11T13:00:10.748Z,13.32
2022-11-11T13:02:53.281Z,11.50
2022-11-11T13:05:27.782Z,12.20
2022-11-11T13:07:57.960Z,12.57
2022-11-11T13:10:32.311Z,10.90
2022-11-11T13:13:18.161Z,8.70
2022-11-11T13:15:45.483Z,7.05
2022-11-11T13:18:15.102Z,10.23
2022-11-11T13:21:08.382Z,10.02
2022-11-11T13:23:35.631Z,10.25
2022-11-11T13:26:05.592Z,10.35
2022-11-11T13:28:32.860Z,9.73
2022-11-11T13:31:03.146Z,8.05
2022-11-11T13:33:39.909Z,9.83
2022-11-11T13:36:09.015Z,9.57
2022-11-11T13:38:36.269Z,9.27
2022-11-11T13:41:05.770Z,9.35
2022-11-11T13:43:36.558Z,9.52
2022-11-11T13:46:05.113Z,8.68
2022-11-11T13:48:34.409Z,9.90
2022-11-11T13:51:20.418Z,8.88
2022-11-11T13:53:48.231Z,9.43
2022-11-11T13:56:26.550Z,9.73
2022-11-11T13:58:56.455Z,8.93
2022-11-11T14:01:24.191Z,9.50
2022-11-11T14:03:51.437Z,9.23
2022-11-11T14:06:18.666Z,7.10
2022-11-11T14:08:50.588Z,7.97
2022-11-11T14:11:26.880Z,8.35
2022-11-11T14:13:58.228Z,8.77
2022-11-11T14:16:37.100Z,9.15
2022-11-11T14:19:19.466Z,7.85
2022-11-11T14:21:54.291Z,7.90
2022-11-11T14:24:26.042Z,8.20
2022-11-11T14:27:00.505Z,7.38
2022-11-11T14:29:48.014Z,6.50
2022-11-11T14:32:15.244Z,7.78
2022-11-11T14:35:00.995Z,7.38
2022-11-11T14:37:39.343Z,7.10
2022-11-11T14:40:10.890Z,7.13
2022-11-11T14:42:45.026Z,7.13
2022-11-11T14:45:27.357Z,6.60
2022-11-11T14:47:56.620Z,6.40
2022-11-11T14:50:32.945Z,6.55
2022-11-11T14:53:01.016Z,6.03
2022-11-11T14:55:38.463Z,6.53
2022-11-11T14:58:08.705Z,5.88
2022-11-11T15:00:54.796Z,6.30
2022-11-11T15:03:28.135Z,6.13
2022-11-11T15:06:00.197Z,6.43
2022-11-11T15:08:38.059Z,6.07
2022-11-11T15:11:05.335Z,6.18
2022-11-11T15:13:50.748Z,6.25
2022-11-11T15:16:24.162Z,5.85
2022-11-11T15:18:54.569Z,5.35
2022-11-11T15:21:29.135Z,5.53
2022-11-11T15:24:13.684Z,5.00
2022-11-11T15:26:45.240Z,4.70
2022-11-11T15:29:56.159Z,5.65
2022-11-11T15:32:43.324Z,4.93
2022-11-11T15:35:29.387Z,4.90
2022-11-11T15:37:58.202Z,5.20
2022-11-11T15:40:26.821Z,5.40
2022-11-11T15:42:54.546Z,4.75
2022-11-11T15:45:23.834Z,5.95
2022-11-11T15:47:51.660Z,5.18
2022-11-11T15:50:20.143Z,5.10
2022-11-11T15:52:47.457Z,5.38
2022-11-11T15:55:35.331Z,4.82
2022-11-11T15:58:22.992Z,5.50
2022-11-11T16:00:51.586Z,5.10
2022-11-11T16:03:23.527Z,5.47
2022-11-11T16:05:50.963Z,5.47
2022-11-11T16:08:22.970Z,5.22
2022-11-11T16:10:58.732Z,5.95
2022-11-11T16:13:40.347Z,5.53
2022-11-11T16:16:10.096Z,5.13
2022-11-11T16:18:45.898Z,5.88
2022-11-11T16:21:16.604Z,5.25
2022-11-11T16:23:44.142Z,4.28
2022-11-11T16:26:11.741Z,5.13
2022-11-11T16:28:47.071Z,5.65
2022-11-11T16:31:23.260Z,4.85
2022-11-11T16:33:50.554Z,4.32
2022-11-11T16:36:18.484Z,4.00
2022-11-11T16:38:45.891Z,4.00
2022-11-11T16:41:29.659Z,4.47
2022-11-11T16:44:00.590Z,4.03
2022-11-11T16:46:36.728Z,3.90
2022-11-11T16:49:13.249Z,3.83
2022-11-11T16:51:40.471Z,3.83
2022-11-11T16:54:28.004Z,4.13
2022-11-11T16:56:57.008Z,4.18
2022-11-11T16:59:27.423Z,3.80
2022-11-11T17:01:54.893Z,3.58
2022-11-11T17:04:25.506Z,3.90
2022-11-11T17:06:55.418Z,4.18
2022-11-11T17:09:28.654Z,3.05
2022-11-11T17:11:56.677Z,3.50
2022-11-11T17:14:24.351Z,3.75
2022-11-11T17:16:51.761Z,3.30
2022-11-11T17:19:19.122Z,3.20
2022-11-11T17:21:46.369Z,3.78
2022-11-11T17:24:14.826Z,3.40
2022-11-11T17:26:42.204Z,3.75
2022-11-11T17:29:10.763Z,3.83
2022-11-11T17:31:38.396Z,3.60
2022-11-11T17:34:09.532Z,3.42
2022-11-11T17:39:04.401Z,3.83
2022-11-11T17:41:31.771Z,3.00
2022-11-11T17:43:59.095Z,3.78
2022-11-11T17:46:26.375Z,4.05
2022-11-11T17:48:55.563Z,3.33
2022-11-11T17:51:24.692Z,3.35
2022-11-11T17:53:52.425Z,3.38
2022-11-11T17:56:20.412Z,3.70
2022-11-11T17:58:47.718Z,3.50
2022-11-11T18:01:15.972Z,3.50
2022-11-11T18:03:43.493Z,3.88
2022-11-11T18:06:11.296Z,3.80
2022-11-11T18:08:38.901Z,3.28
2022-11-11T18:11:09.012Z,3.88
2022-11-11T18:13:36.285Z,3.47
2022-11-11T18:16:06.283Z,3.80
2022-11-11T18:18:34.623Z,3.60
2022-11-11T18:21:05.493Z,3.33
2022-11-11T18:23:34.238Z,3.72
2022-11-11T18:26:01.498Z,3.72
2022-11-11T18:28:35.998Z,3.50
2022-11-11T18:31:04.425Z,3.60
2022-11-11T18:33:32.120Z,3.25
2022-11-11T18:36:10.053Z,2.72
2022-11-11T18:38:37.567Z,3.10
2022-11-11T18:41:05.983Z,3.40
2022-11-11T18:43:52.337Z,2.72
2022-11-11T18:46:26.784Z,3.47
2022-11-11T18:48:58.026Z,3.25
2022-11-11T18:53:52.881Z,2.80
2022-11-11T18:56:21.791Z,3.05
2022-11-11T18:58:50.440Z,8.02
2022-11-11T19:01:25.367Z,3.35
2022-11-11T19:03:54.056Z,3.00
2022-11-11T19:06:21.883Z,3.03
2022-11-11T19:08:50.502Z,3.20
2022-11-11T19:11:17.877Z,2.65
2022-11-11T19:13:45.402Z,2.60
2022-11-11T19:16:16.672Z,2.95
2022-11-11T19:18:43.915Z,3.10
2022-11-11T19:21:18.408Z,3.17
2022-11-11T19:23:46.696Z,3.72
2022-11-11T19:26:14.651Z,3.50
2022-11-11T19:28:42.772Z,3.30
2022-11-11T19:31:14.318Z,2.85
2022-11-11T19:33:42.541Z,3.22
2022-11-11T19:36:11.084Z,2.75
2022-11-11T19:38:38.746Z,2.55
2022-11-11T19:41:07.497Z,2.47
2022-11-11T19:43:35.273Z,3.30
2022-11-11T19:46:03.312Z,2.97
2022-11-11T19:48:31.040Z,2.90
2022-11-11T19:50:58.581Z,2.53
2022-11-11T19:53:26.209Z,2.70
2022-11-11T19:55:57.795Z,2.35
2022-11-11T19:58:25.138Z,2.58
2022-11-11T20:00:52.501Z,2.45
2022-11-11T20:03:19.863Z,2.63
2022-11-11T20:05:48.438Z,2.75
2022-11-11T20:08:15.851Z,2.50
2022-11-11T20:10:44.629Z,2.58
2022-11-11T20:13:12.352Z,2.20
2022-11-11T20:15:39.721Z,2.35
2022-11-11T20:18:07.178Z,2.15
2022-11-11T20:20:34.583Z,2.13
2022-11-11T20:23:06.124Z,2.20
2022-11-11T20:25:33.471Z,2.88
2022-11-11T20:28:00.759Z,2.20
2022-11-11T20:30:28.142Z,2.10
2022-11-11T20:32:55.401Z,2.05
2022-11-11T20:35:22.710Z,2.00
2022-11-11T20:37:50.829Z,2.28
2022-11-11T20:40:18.080Z,1.85
2022-11-11T20:42:45.310Z,2.03
2022-11-11T20:45:12.803Z,2.00
2022-11-11T20:47:40.092Z,1.98
2022-11-11T20:50:07.559Z,2.05
2022-11-11T20:52:34.803Z,2.10
2022-11-11T20:55:02.054Z,1.63
2022-11-11T20:57:29.325Z,1.90
2022-11-11T20:59:56.584Z,1.73
2022-11-11T21:02:24.469Z,1.58
2022-11-11T21:04:51.791Z,1.60
2022-11-11T21:07:19.107Z,1.50
2022-11-11T21:09:46.402Z,1.70
2022-11-11T21:12:13.662Z,1.98
2022-11-11T21:14:40.925Z,2.03
2022-11-11T21:17:08.190Z,1.60
2022-11-11T21:19:35.563Z,1.58
2022-11-11T21:22:07.306Z,2.33
2022-11-11T21:24:37.270Z,1.38
2022-11-11T21:27:04.580Z,1.80
2022-11-11T21:29:31.845Z,2.10
2022-11-11T21:31:59.079Z,1.73
2022-11-11T21:34:26.314Z,2.03
2022-11-11T21:36:53.600Z,2.28
2022-11-11T21:39:20.828Z,1.40
2022-11-11T21:41:48.089Z,1.60
2022-11-11T21:44:15.301Z,1.60
2022-11-11T21:46:42.585Z,1.77
2022-11-11T21:49:09.835Z,2.30
2022-11-11T21:51:37.578Z,2.15
2022-11-11T21:54:06.904Z,1.90
2022-11-11T21:56:36.311Z,2.08
2022-11-11T21:59:04.917Z,1.80
2022-11-11T22:01:36.018Z,1.88
2022-11-11T22:06:30.754Z,1.83
2022-11-11T22:08:58.536Z,1.70
2022-11-11T22:11:27.719Z,1.90
2022-11-11T22:13:55.188Z,1.85
2022-11-11T22:16:23.885Z,2.28
2022-11-11T22:19:01.450Z,1.90
2022-11-11T22:21:29.623Z,2.00
2022-11-11T22:23:59.265Z,2.00
2022-11-11T22:26:27.195Z,2.65
2022-11-11T22:28:55.121Z,2.05
2022-11-11T22:31:23.913Z,2.20
2022-11-11T22:33:54.651Z,2.45
2022-11-11T22:36:21.975Z,2.03
2022-11-11T22:38:49.353Z,2.10
2022-11-11T22:41:19.364Z,2.08
2022-11-11T22:44:03.979Z,2.20
2022-11-11T22:46:32.054Z,2.03
2022-11-11T22:49:03.539Z,1.95
2022-11-11T22:51:31.457Z,2.20
2022-11-11T22:53:59.947Z,2.33
2022-11-11T22:56:27.237Z,1.90
2022-11-11T22:58:54.901Z,2.15
2022-11-11T23:01:29.065Z,1.92
2022-11-11T23:03:57.810Z,1.83
2022-11-11T23:06:29.672Z,2.15
2022-11-11T23:08:56.956Z,2.50
2022-11-11T23:11:28.285Z,2.38
2022-11-11T23:14:05.649Z,2.55
2022-11-11T23:16:33.259Z,2.70
2022-11-11T23:19:00.933Z,2.15
2022-11-11T23:21:29.272Z,2.30
2022-11-11T23:23:57.018Z,2.72
2022-11-11T23:26:25.460Z,2.33
2022-11-11T23:28:52.733Z,2.30
2022-11-11T23:31:24.429Z,1.85
2022-11-11T23:33:53.594Z,2.30
2022-11-11T23:36:24.993Z,2.60
2022-11-11T23:38:52.592Z,2.00
2022-11-11T23:41:20.009Z,2.42
2022-11-11T23:43:47.471Z,2.42
2022-11-11T23:46:14.800Z,1.92
2022-11-11T23:48:42.117Z,1.90
2022-11-11T23:51:09.442Z,1.98
2022-11-11T23:53:36.792Z,2.28
2022-11-11T23:56:04.620Z,1.52
2022-11-11T23:58:31.906Z,2.20
